Time;durP1;ratioP1;P1;durP2;ratioP2;P2;SDS_P1;SDS_P2;PMS_P1;PMS_P2;Temp;Humidity;BMP_temperature;BMP_pressure;BME280_temperature;BME280_humidity;BME280_pressure;Samples;Min_cycle;Max_cycle;Signal;HPM_P1;HPM_P2
2022/01/06 00:02:25;;;;;;;7.65;2.20;;;2.40;99.90;;;;;;4992786;28;20065;-71
2022/01/06 00:04:51;;;;;;;7.63;1.83;;;2.40;99.90;;;;;;5011889;28;20026;-71
2022/01/06 00:07:17;;;;;;;11.32;2.25;;;2.40;99.90;;;;;;5017196;28;20030;-71
2022/01/06 00:09:43;;;;;;;9.82;1.70;;;2.40;99.90;;;;;;5007981;28;20506;-71
2022/01/06 00:12:16;;;;;;;6.68;1.90;;;2.40;99.90;;;;;;5011030;28;20430;-71
2022/01/06 00:17:59;;;;;;;8.18;1.88;;;2.40;99.90;;;;;;4958674;28;19999;-71
2022/01/06 00:26:13;;;;;;;9.85;1.85;;;2.40;99.90;;;;;;4965879;28;20132;-71
2022/01/06 00:28:38;;;;;;;9.00;1.67;;;2.40;99.90;;;;;;5014035;28;20112;-71
2022/01/06 00:31:05;;;;;;;6.47;1.70;;;2.30;99.90;;;;;;4996408;28;20026;-70
2022/01/06 00:33:32;;;;;;;7.18;1.73;;;2.40;99.90;;;;;;5010129;28;20060;-71
2022/01/06 00:35:58;;;;;;;4.75;1.90;;;2.30;99.90;;;;;;5006437;28;20035;-71
2022/01/06 00:38:25;;;;;;;9.00;2.30;;;2.40;99.90;;;;;;5012939;28;20032;-70
2022/01/06 00:40:58;;;;;;;9.07;1.88;;;2.30;99.90;;;;;;5011696;28;20037;-71
2022/01/06 00:43:24;;;;;;;7.63;1.90;;;2.30;99.90;;;;;;4998528;28;20029;-71
2022/01/06 00:45:49;;;;;;;6.53;1.42;;;2.40;99.90;;;;;;5012160;28;20038;-71
2022/01/06 00:48:15;;;;;;;8.50;1.38;;;2.40;99.90;;;;;;5017594;28;20021;-71
2022/01/06 00:50:42;;;;;;;9.23;1.88;;;2.40;99.90;;;;;;5014500;28;20026;-71
2022/01/06 00:53:09;;;;;;;9.65;2.28;;;2.50;99.90;;;;;;5015194;28;20494;-71
2022/01/06 00:55:35;;;;;;;6.63;1.80;;;2.40;99.90;;;;;;4995942;28;20026;-71
2022/01/06 00:58:02;;;;;;;10.98;2.22;;;2.50;99.90;;;;;;4996132;28;20037;-71
2022/01/06 01:00:37;;;;;;;6.82;1.60;;;2.40;99.90;;;;;;5015997;28;20433;-71
2022/01/06 01:03:05;;;;;;;5.35;1.40;;;2.40;99.90;;;;;;5015285;28;20018;-71
2022/01/06 01:05:31;;;;;;;12.57;1.75;;;2.40;99.90;;;;;;5016444;28;20079;-71
2022/01/06 01:07:57;;;;;;;7.25;2.20;;;2.50;99.90;;;;;;5009413;28;20131;-71
2022/01/06 01:10:23;;;;;;;8.57;1.65;;;2.50;99.90;;;;;;5010366;28;20612;-72
2022/01/06 01:12:49;;;;;;;6.47;1.55;;;2.50;99.90;;;;;;4996349;28;20036;-71
2022/01/06 01:15:20;;;;;;;7.57;1.75;;;2.40;99.90;;;;;;5012234;28;20021;-71
2022/01/06 01:17:48;;;;;;;4.38;2.35;;;2.40;99.90;;;;;;5014609;28;20037;-72
2022/01/06 01:20:15;;;;;;;9.43;2.30;;;2.40;99.90;;;;;;4993693;28;20151;-71
2022/01/06 01:22:41;;;;;;;3.83;1.60;;;2.40;99.90;;;;;;4990481;28;20028;-71
2022/01/06 01:25:07;;;;;;;4.68;1.60;;;2.40;99.90;;;;;;5011855;28;20104;-71
2022/01/06 01:27:39;;;;;;;4.97;1.35;;;2.50;99.90;;;;;;5009142;28;20030;-69
2022/01/06 01:30:11;;;;;;;5.28;1.88;;;2.50;99.90;;;;;;4991457;28;20034;-69
2022/01/06 01:32:38;;;;;;;8.77;1.83;;;2.50;99.90;;;;;;5008840;28;20128;-69
2022/01/06 01:35:07;;;;;;;4.97;1.55;;;2.60;99.90;;;;;;4993144;28;20506;-70
2022/01/06 01:37:34;;;;;;;6.57;1.67;;;2.60;99.90;;;;;;4988621;28;20029;-70
2022/01/06 01:40:00;;;;;;;5.78;1.80;;;2.60;99.90;;;;;;4992356;28;20030;-70
2022/01/06 01:42:27;;;;;;;5.97;1.77;;;2.60;99.90;;;;;;5005265;28;20053;-70
2022/01/06 01:44:53;;;;;;;9.77;1.73;;;2.60;99.90;;;;;;5008613;28;20061;-70
2022/01/06 01:47:30;;;;;;;10.88;2.75;;;2.60;99.90;;;;;;5018937;28;20042;-70
2022/01/06 01:50:18;;;;;;;6.13;2.17;;;2.60;99.90;;;;;;5006825;28;20072;-70
2022/01/06 01:52:47;;;;;;;5.68;1.60;;;2.60;99.90;;;;;;4996795;28;20060;-70
2022/01/06 01:55:22;;;;;;;8.30;1.88;;;2.50;99.90;;;;;;5008044;28;20096;-70
2022/01/06 01:57:52;;;;;;;8.43;2.45;;;2.50;99.90;;;;;;4990658;28;20561;-69
2022/01/06 02:00:23;;;;;;;10.40;2.20;;;2.50;99.90;;;;;;5011744;28;20032;-69
2022/01/06 02:02:49;;;;;;;6.07;1.60;;;2.40;99.90;;;;;;5008977;28;20033;-69
2022/01/06 02:05:21;;;;;;;7.32;1.83;;;2.40;99.90;;;;;;5005310;28;20037;-69
2022/01/06 02:07:47;;;;;;;4.90;1.50;;;2.40;99.90;;;;;;5011473;28;20089;-69
2022/01/06 02:10:13;;;;;;;9.82;2.42;;;2.40;99.90;;;;;;4990189;28;20149;-69
2022/01/06 02:12:41;;;;;;;9.40;1.90;;;2.40;99.90;;;;;;5016664;28;20056;-69
2022/01/06 02:15:09;;;;;;;11.15;2.80;;;2.40;99.90;;;;;;5010239;28;20107;-69
2022/01/06 02:17:36;;;;;;;2.92;1.35;;;2.50;99.90;;;;;;5010449;28;20038;-69
2022/01/06 02:20:07;;;;;;;7.93;1.80;;;2.50;99.90;;;;;;5008696;28;20060;-69
2022/01/06 02:22:36;;;;;;;7.35;1.90;;;2.50;99.90;;;;;;5011178;28;20006;-69
2022/01/06 02:25:26;;;;;;;5.13;1.70;;;2.50;99.90;;;;;;5012759;28;20036;-68
2022/01/06 02:27:53;;;;;;;6.00;1.60;;;2.50;99.90;;;;;;5009751;28;20029;-68
2022/01/06 02:30:21;;;;;;;11.18;1.92;;;2.50;99.90;;;;;;5005038;28;20073;-68
2022/01/06 02:32:47;;;;;;;7.20;2.58;;;2.50;99.90;;;;;;5004374;28;20030;-69
2022/01/06 02:35:16;;;;;;;10.70;2.00;;;2.50;99.90;;;;;;5008106;28;20018;-69
2022/01/06 02:37:42;;;;;;;6.18;1.90;;;2.60;99.90;;;;;;5007933;28;20039;-69
2022/01/06 02:40:16;;;;;;;8.60;1.73;;;2.60;99.90;;;;;;5013454;28;20036;-68
2022/01/06 02:42:43;;;;;;;;;;;2.60;99.90;;;;;;5014487;28;20018;-69
2022/01/06 02:45:10;;;;;;;3.15;1.60;;;2.60;99.90;;;;;;5016638;28;19913;-69
2022/01/06 02:47:36;;;;;;;7.65;1.80;;;2.60;99.90;;;;;;4993580;28;20513;-68
2022/01/06 02:50:06;;;;;;;10.88;2.05;;;2.50;99.90;;;;;;4990910;28;20033;-68
2022/01/06 02:52:32;;;;;;;9.15;1.75;;;2.50;99.90;;;;;;5010633;28;20391;-69
2022/01/06 02:54:58;;;;;;;7.03;1.88;;;2.60;99.90;;;;;;5010431;28;20030;-69
2022/01/06 02:57:27;;;;;;;7.82;1.75;;;2.50;99.90;;;;;;5008894;28;20030;-69
2022/01/06 02:59:52;;;;;;;7.30;1.75;;;2.50;99.90;;;;;;5014070;28;20057;-68
2022/01/06 03:02:18;;;;;;;4.40;1.63;;;2.50;99.90;;;;;;5009444;28;20060;-69
2022/01/06 03:04:44;;;;;;;6.78;2.28;;;2.50;99.90;;;;;;5013235;28;20036;-70
2022/01/06 03:07:10;;;;;;;6.57;1.85;;;2.60;99.90;;;;;;4997613;28;20064;-70
2022/01/06 03:09:43;;;;;;;5.57;1.65;;;2.60;99.90;;;;;;5015462;28;20041;-70
2022/01/06 03:12:23;;;;;;;11.48;2.45;;;2.60;99.90;;;;;;5008942;28;20022;-69
2022/01/06 03:14:48;;;;;;;5.72;1.80;;;2.60;99.90;;;;;;5010889;28;20027;-70
2022/01/06 03:17:17;;;;;;;8.70;1.38;;;2.60;99.90;;;;;;5013961;28;20032;-70
2022/01/06 03:19:46;;;;;;;6.05;1.80;;;2.60;99.90;;;;;;4992436;28;20030;-70
2022/01/06 03:22:13;;;;;;;4.38;1.70;;;2.60;99.90;;;;;;4994461;28;20453;-70
2022/01/06 03:24:39;;;;;;;4.15;1.60;;;2.70;99.90;;;;;;4992110;28;20483;-70
2022/01/06 03:27:05;;;;;;;2.25;1.27;;;2.60;99.90;;;;;;5006889;28;20031;-71
2022/01/06 03:29:31;;;;;;;9.93;2.13;;;2.60;99.90;;;;;;5008505;28;20050;-70
2022/01/06 03:31:58;;;;;;;7.40;1.67;;;2.70;99.90;;;;;;5013952;28;20359;-70
2022/01/06 03:34:24;;;;;;;7.57;1.60;;;2.70;99.90;;;;;;5010855;28;20033;-71
2022/01/06 03:36:50;;;;;;;5.35;1.90;;;2.70;99.90;;;;;;5009380;28;20399;-70
2022/01/06 03:39:16;;;;;;;3.80;1.48;;;2.70;99.90;;;;;;5010976;28;20018;-70
2022/01/06 03:41:42;;;;;;;4.07;1.95;;;2.70;99.90;;;;;;5007866;28;20105;-70
2022/01/06 03:44:07;;;;;;;10.55;1.92;;;2.70;99.90;;;;;;5012152;28;20156;-69
2022/01/06 03:46:33;;;;;;;4.60;1.45;;;2.70;99.90;;;;;;5008292;28;20018;-69
2022/01/06 03:48:59;;;;;;;6.78;1.50;;;2.70;99.90;;;;;;5010096;28;20054;-69
2022/01/06 03:51:27;;;;;;;5.40;1.60;;;2.60;99.90;;;;;;5011101;28;20084;-69
2022/01/06 03:53:53;;;;;;;3.72;1.60;;;2.60;99.90;;;;;;5005626;28;20021;-70
2022/01/06 03:56:20;;;;;;;4.38;1.40;;;2.70;99.90;;;;;;5010324;28;20040;-70
2022/01/06 03:58:45;;;;;;;3.22;1.38;;;2.70;99.90;;;;;;5012981;28;20363;-70
2022/01/06 04:01:12;;;;;;;11.27;2.55;;;2.70;99.90;;;;;;5003876;28;20036;-70
2022/01/06 04:03:38;;;;;;;5.45;1.27;;;2.70;99.90;;;;;;5009965;28;20371;-70
2022/01/06 04:06:04;;;;;;;4.28;1.40;;;2.70;99.90;;;;;;5013287;28;20059;-70
2022/01/06 04:08:33;;;;;;;4.95;1.38;;;2.70;99.90;;;;;;5007418;28;20026;-70
2022/01/06 04:11:01;;;;;;;6.75;1.40;;;2.70;99.90;;;;;;4991354;28;20026;-70
2022/01/06 04:13:27;;;;;;;4.53;1.60;;;2.70;99.90;;;;;;4992109;28;20026;-70
2022/01/06 04:15:53;;;;;;;4.10;1.10;;;2.70;99.90;;;;;;4991179;28;20028;-70
2022/01/06 04:18:19;;;;;;;5.88;1.63;;;2.70;99.90;;;;;;5008870;28;20049;-69
2022/01/06 04:20:44;;;;;;;5.32;1.40;;;2.70;99.90;;;;;;4999297;28;20812;-70
2022/01/06 04:23:10;;;;;;;2.95;1.27;;;2.70;99.90;;;;;;5007743;28;20030;-69
2022/01/06 04:25:36;;;;;;;3.70;1.40;;;2.70;99.90;;;;;;5004380;28;20483;-70
2022/01/06 04:28:02;;;;;;;4.80;1.60;;;2.70;99.90;;;;;;5009176;28;20066;-70
2022/01/06 04:30:27;;;;;;;4.57;1.27;;;2.70;99.90;;;;;;5010048;28;20069;-69
2022/01/06 04:32:56;;;;;;;3.55;1.63;;;2.70;99.90;;;;;;5008633;28;20072;-70
2022/01/06 04:35:22;;;;;;;3.30;1.23;;;2.70;99.90;;;;;;5006163;28;20030;-69
2022/01/06 04:37:49;;;;;;;7.90;1.42;;;2.80;99.90;;;;;;5010075;28;20037;-70
2022/01/06 04:40:15;;;;;;;4.20;1.80;;;2.70;99.90;;;;;;5010725;28;20194;-70
2022/01/06 04:42:40;;;;;;;3.15;1.10;;;2.70;99.90;;;;;;5001674;28;20591;-70
2022/01/06 04:45:07;;;;;;;3.25;1.35;;;2.70;99.90;;;;;;5010254;28;20379;-70
2022/01/06 04:47:36;;;;;;;3.60;1.00;;;2.70;99.90;;;;;;5002056;28;20105;-69
2022/01/06 04:50:03;;;;;;;8.00;1.60;;;2.70;99.90;;;;;;5005192;28;20518;-69
2022/01/06 04:52:28;;;;;;;4.78;1.38;;;2.70;99.90;;;;;;5002874;28;20038;-69
2022/01/06 04:54:54;;;;;;;3.63;1.60;;;2.70;99.90;;;;;;5010560;28;21195;-70
2022/01/06 04:57:19;;;;;;;3.38;1.38;;;2.70;99.90;;;;;;5005776;28;20017;-70
2022/01/06 04:59:45;;;;;;;2.05;1.10;;;2.70;99.90;;;;;;5008902;28;20029;-70
2022/01/06 05:02:14;;;;;;;4.63;1.67;;;2.70;99.90;;;;;;5011408;28;20037;-70
2022/01/06 05:04:43;;;;;;;6.03;1.83;;;2.70;99.90;;;;;;5012429;28;20056;-70
2022/01/06 05:07:08;;;;;;;3.00;1.60;;;2.70;99.90;;;;;;5006432;28;20451;-70
2022/01/06 05:09:37;;;;;;;5.13;1.23;;;2.70;99.90;;;;;;5009331;28;20034;-70
2022/01/06 05:12:03;;;;;;;2.97;1.50;;;2.80;99.90;;;;;;4991163;28;20026;-70
2022/01/06 05:14:28;;;;;;;5.68;1.77;;;2.80;99.90;;;;;;5008957;28;20446;-69
2022/01/06 05:16:56;;;;;;;4.03;1.48;;;2.80;99.90;;;;;;5006518;28;20026;-70
2022/01/06 05:19:23;;;;;;;4.13;1.20;;;2.70;99.90;;;;;;4993424;28;20042;-69
2022/01/06 05:21:51;;;;;;;5.20;2.00;;;2.80;99.90;;;;;;4992185;28;20092;-71
2022/01/06 05:24:17;;;;;;;2.60;1.40;;;2.70;99.90;;;;;;5004809;28;20029;-70
2022/01/06 05:26:43;;;;;;;4.53;1.33;;;2.80;99.90;;;;;;4992826;28;20041;-71
2022/01/06 05:29:13;;;;;;;1.88;1.02;;;2.70;99.90;;;;;;4991224;28;20056;-71
2022/01/06 05:31:39;;;;;;;4.10;1.35;;;2.70;99.90;;;;;;5004172;28;20104;-71
2022/01/06 05:34:08;;;;;;;2.22;1.02;;;2.70;99.90;;;;;;5003303;28;20048;-71
2022/01/06 05:36:34;;;;;;;3.28;1.50;;;2.70;99.90;;;;;;5003277;28;20556;-71
2022/01/06 05:39:03;;;;;;;5.78;1.42;;;2.70;99.90;;;;;;5003981;28;20014;-71
2022/01/06 05:41:32;;;;;;;2.67;1.27;;;2.70;99.90;;;;;;5005287;28;20076;-71
2022/01/06 05:43:58;;;;;;;2.70;1.00;;;2.70;99.90;;;;;;5005310;28;20121;-69
2022/01/06 05:46:24;;;;;;;1.98;1.05;;;2.70;99.90;;;;;;5005308;28;20427;-70
2022/01/06 05:48:50;;;;;;;5.70;1.95;;;2.70;99.90;;;;;;5005996;28;20030;-70
2022/01/06 05:51:18;;;;;;;3.35;2.25;;;2.70;99.90;;;;;;4989239;28;20026;-70
2022/01/06 05:53:44;;;;;;;4.85;1.55;;;2.70;99.90;;;;;;5009364;28;20030;-69
2022/01/06 05:56:10;;;;;;;1.83;1.00;;;2.70;99.90;;;;;;5008482;28;20025;-68
2022/01/06 05:58:37;;;;;;;3.17;1.10;;;2.70;99.90;;;;;;4996051;28;20168;-69
2022/01/06 06:01:03;;;;;;;2.28;1.30;;;2.70;99.90;;;;;;4991201;28;20064;-69
2022/01/06 06:03:31;;;;;;;2.00;0.90;;;2.70;99.90;;;;;;4994807;28;20712;-70
2022/01/06 06:05:57;;;;;;;2.20;1.10;;;2.60;99.90;;;;;;5004920;28;20033;-70
2022/01/06 06:08:22;;;;;;;2.53;1.00;;;2.60;99.90;;;;;;5005937;28;20045;-70
2022/01/06 06:10:48;;;;;;;1.83;0.98;;;2.60;99.90;;;;;;5012338;28;20026;-70
2022/01/06 06:13:17;;;;;;;6.82;1.30;;;2.60;99.90;;;;;;5013983;28;20036;-70
2022/01/06 06:15:43;;;;;;;5.53;1.25;;;2.60;99.90;;;;;;5007359;28;20064;-70
2022/01/06 06:18:12;;;;;;;1.98;1.00;;;2.60;99.90;;;;;;5010442;28;20096;-70
2022/01/06 06:20:41;;;;;;;3.83;1.38;;;2.60;99.90;;;;;;5009009;28;20034;-69
2022/01/06 06:23:07;;;;;;;1.42;0.88;;;2.70;99.90;;;;;;5011750;28;20108;-70
2022/01/06 06:25:33;;;;;;;3.70;1.10;;;2.70;99.90;;;;;;5011080;28;20441;-70
2022/01/06 06:28:02;;;;;;;2.08;0.80;;;2.70;99.90;;;;;;5007100;28;20029;-70
2022/01/06 06:30:28;;;;;;;1.92;0.90;;;2.70;99.90;;;;;;5009761;28;20228;-69
2022/01/06 06:32:54;;;;;;;2.70;1.10;;;2.60;99.90;;;;;;5009834;28;20021;-70
2022/01/06 06:35:19;;;;;;;2.28;1.13;;;2.70;99.90;;;;;;5006561;28;20023;-69
2022/01/06 06:37:48;;;;;;;2.85;0.98;;;2.70;99.90;;;;;;5011970;28;20018;-69
2022/01/06 06:40:14;;;;;;;2.90;0.77;;;2.70;99.90;;;;;;5010449;28;20117;-70
2022/01/06 06:42:40;;;;;;;3.25;1.20;;;2.70;99.90;;;;;;4993560;28;20038;-70
2022/01/06 06:45:08;;;;;;;1.17;0.90;;;2.70;99.90;;;;;;5015360;28;20018;-70
2022/01/06 06:47:34;;;;;;;1.27;0.85;;;2.60;99.90;;;;;;5005615;28;20034;-70
2022/01/06 06:50:03;;;;;;;1.85;0.77;;;2.60;99.90;;;;;;5009788;28;20113;-70
2022/01/06 06:52:29;;;;;;;3.35;1.33;;;2.60;99.90;;;;;;5008374;28;20140;-70
2022/01/06 06:55:00;;;;;;;1.85;1.08;;;2.70;99.90;;;;;;5011287;28;20022;-69
2022/01/06 06:57:26;;;;;;;2.83;1.00;;;2.60;99.90;;;;;;5008417;28;20021;-69
2022/01/06 07:00:03;;;;;;;2.38;0.90;;;2.70;99.90;;;;;;4988502;28;20026;-71
2022/01/06 07:02:28;;;;;;;3.30;1.13;;;2.60;99.90;;;;;;5012183;28;20037;-70
2022/01/06 07:04:57;;;;;;;1.58;0.90;;;2.60;99.90;;;;;;5014321;28;20021;-70
2022/01/06 07:07:23;;;;;;;2.45;1.10;;;2.60;99.90;;;;;;5009510;28;20080;-70
2022/01/06 07:09:48;;;;;;;2.05;0.90;;;2.70;99.90;;;;;;5006977;28;20042;-70
2022/01/06 07:12:14;;;;;;;1.75;0.95;;;2.70;99.90;;;;;;5005263;28;20018;-69
2022/01/06 07:14:46;;;;;;;1.90;1.02;;;2.70;99.90;;;;;;5008288;28;20037;-69
2022/01/06 07:17:12;;;;;;;2.08;1.17;;;2.70;99.90;;;;;;5007234;28;20026;-69
2022/01/06 07:19:37;;;;;;;1.95;1.05;;;2.70;99.90;;;;;;5000105;28;20599;-70
2022/01/06 07:22:05;;;;;;;2.22;1.23;;;2.70;99.90;;;;;;5008655;28;20034;-69
2022/01/06 07:24:31;;;;;;;3.35;1.08;;;2.70;99.90;;;;;;5012959;28;20071;-69
2022/01/06 07:27:03;;;;;;;2.30;1.13;;;2.70;99.90;;;;;;5020878;28;20034;-69
2022/01/06 07:29:29;;;;;;;5.07;3.00;;;2.70;99.90;;;;;;5034527;23;20051;-68
2022/01/06 07:31:55;;;;;;;3.42;2.15;;;2.70;99.90;;;;;;5010927;28;20026;-68
2022/01/06 07:34:21;;;;;;;3.95;1.98;;;2.70;99.90;;;;;;4997810;28;20033;-67
2022/01/06 07:36:46;;;;;;;4.28;1.73;;;2.70;99.90;;;;;;5006815;28;20022;-69
2022/01/06 07:39:12;;;;;;;2.03;1.00;;;2.80;99.90;;;;;;5010346;28;20519;-67
2022/01/06 07:41:38;;;;;;;1.90;1.10;;;2.80;99.90;;;;;;5004684;28;20098;-69
2022/01/06 07:44:07;;;;;;;2.25;0.98;;;2.80;99.90;;;;;;5004301;28;20029;-69
2022/01/06 07:46:37;;;;;;;2.45;0.90;;;2.80;99.90;;;;;;4992368;28;20058;-68
2022/01/06 07:49:03;;;;;;;1.45;0.77;;;2.80;99.90;;;;;;5007700;28;20962;-69
2022/01/06 07:51:30;;;;;;;3.13;1.15;;;2.90;99.90;;;;;;5001136;28;20037;-69
2022/01/06 07:53:56;;;;;;;1.65;0.80;;;2.80;99.90;;;;;;5002490;28;20382;-68
2022/01/06 07:56:22;;;;;;;1.67;1.00;;;2.80;99.90;;;;;;5004443;28;20494;-69
2022/01/06 07:58:49;;;;;;;2.50;1.67;;;2.80;99.90;;;;;;5005099;28;20041;-67
2022/01/06 08:01:15;;;;;;;3.60;1.60;;;2.90;99.90;;;;;;5005795;28;20034;-69
2022/01/06 08:03:42;;;;;;;6.18;3.25;;;2.90;99.90;;;;;;5005760;28;20030;-68
2022/01/06 08:06:09;;;;;;;4.13;1.63;;;2.90;99.90;;;;;;4990057;28;20029;-70
2022/01/06 08:08:35;;;;;;;1.70;1.00;;;2.90;99.90;;;;;;5007394;28;20025;-69
2022/01/06 08:11:01;;;;;;;1.60;0.77;;;2.90;99.90;;;;;;5007795;28;20129;-70
2022/01/06 08:13:27;;;;;;;2.58;0.90;;;2.90;99.90;;;;;;4992369;28;20038;-70
2022/01/06 08:15:52;;;;;;;1.80;1.00;;;3.00;99.90;;;;;;4991744;28;20031;-69
2022/01/06 08:18:18;;;;;;;3.63;1.00;;;3.00;99.90;;;;;;4988843;28;20050;-68
2022/01/06 08:20:44;;;;;;;4.07;1.50;;;3.10;99.90;;;;;;4991988;28;20026;-70
2022/01/06 08:23:09;;;;;;;1.15;0.77;;;3.10;99.90;;;;;;5010861;28;20072;-69
2022/01/06 08:25:36;;;;;;;1.83;1.00;;;3.10;99.90;;;;;;5009808;28;20109;-69
2022/01/06 08:28:02;;;;;;;2.17;0.90;;;3.10;99.90;;;;;;4989126;28;20034;-70
2022/01/06 08:30:29;;;;;;;3.80;2.00;;;3.10;99.90;;;;;;5003821;28;20498;-70
2022/01/06 08:32:55;;;;;;;2.67;1.67;;;3.10;99.90;;;;;;4990284;28;20029;-69
2022/01/06 08:35:22;;;;;;;5.13;2.55;;;3.10;99.90;;;;;;5004461;28;20029;-68
2022/01/06 08:37:47;;;;;;;6.00;2.25;;;3.10;99.90;;;;;;5002161;28;22347;-68
2022/01/06 08:40:13;;;;;;;4.28;1.65;;;3.10;99.90;;;;;;5008960;28;20041;-69
2022/01/06 08:42:39;;;;;;;3.42;1.50;;;3.10;99.90;;;;;;4986801;28;20048;-68
2022/01/06 08:45:05;;;;;;;2.60;1.65;;;3.10;99.90;;;;;;5009273;28;20507;-69
2022/01/06 08:47:31;;;;;;;3.20;1.58;;;3.10;99.90;;;;;;4995756;28;20125;-69
2022/01/06 08:49:57;;;;;;;3.78;1.35;;;3.10;99.90;;;;;;5004092;28;20640;-69
2022/01/06 08:52:23;;;;;;;3.80;1.13;;;3.00;99.90;;;;;;5000792;28;20406;-69
2022/01/06 08:54:49;;;;;;;2.58;1.10;;;2.90;99.90;;;;;;4984900;28;20415;-69
2022/01/06 08:57:16;;;;;;;1.90;0.90;;;2.90;99.90;;;;;;5003512;28;20652;-70
2022/01/06 08:59:42;;;;;;;18.40;7.63;;;2.80;99.90;;;;;;5009386;28;20087;-68
2022/01/06 09:02:08;;;;;;;7.82;3.75;;;2.80;99.90;;;;;;5000081;28;20053;-69
2022/01/06 09:04:34;;;;;;;2.28;1.30;;;2.80;99.90;;;;;;5015226;28;20451;-69
2022/01/06 09:07:02;;;;;;;3.35;1.42;;;2.80;99.90;;;;;;4994969;28;20117;-68
2022/01/06 09:09:28;;;;;;;2.08;1.13;;;2.70;99.90;;;;;;5014006;28;20029;-67
2022/01/06 09:11:54;;;;;;;3.90;1.50;;;2.70;99.90;;;;;;5006980;28;20022;-69
2022/01/06 09:14:20;;;;;;;2.83;1.40;;;2.80;99.90;;;;;;5009627;28;20501;-69
2022/01/06 09:16:45;;;;;;;3.13;1.15;;;2.70;99.90;;;;;;5011395;28;20013;-69
2022/01/06 09:19:11;;;;;;;2.92;1.13;;;2.70;99.90;;;;;;5004192;28;20033;-69
2022/01/06 09:21:37;;;;;;;2.20;1.13;;;2.80;99.90;;;;;;5003042;28;20038;-68
2022/01/06 09:24:07;;;;;;;3.33;1.27;;;2.70;99.90;;;;;;5001021;28;20035;-68
2022/01/06 09:26:37;;;;;;;3.03;1.35;;;2.70;99.90;;;;;;5005624;28;20025;-70
2022/01/06 09:29:07;;;;;;;3.55;1.58;;;2.80;99.90;;;;;;4995405;28;20026;-67
2022/01/06 09:31:35;;;;;;;4.05;1.30;;;2.90;99.90;;;;;;5006945;28;20014;-69
2022/01/06 09:34:02;;;;;;;2.83;1.33;;;3.00;99.90;;;;;;5013285;28;20018;-69
2022/01/06 09:36:28;;;;;;;2.53;1.23;;;3.10;99.90;;;;;;4996526;28;20052;-70
2022/01/06 09:38:56;;;;;;;2.67;1.30;;;3.20;99.90;;;;;;4993071;28;20427;-70
2022/01/06 09:41:22;;;;;;;2.75;1.50;;;3.30;99.90;;;;;;5006075;28;20029;-69
2022/01/06 09:43:52;;;;;;;4.47;1.10;;;3.30;99.90;;;;;;5000917;28;20068;-69
2022/01/06 09:46:20;;;;;;;2.10;0.98;;;3.30;99.90;;;;;;5010453;28;20034;-69
2022/01/06 09:48:46;;;;;;;3.08;1.23;;;3.30;99.90;;;;;;5000469;28;20077;-70
2022/01/06 09:51:12;;;;;;;4.78;2.75;;;3.40;99.90;;;;;;5008490;28;20026;-69
2022/01/06 09:53:38;;;;;;;3.95;1.60;;;3.40;99.90;;;;;;5007088;28;20030;-71
2022/01/06 09:56:04;;;;;;;3.00;1.63;;;3.40;99.90;;;;;;5009323;28;20024;-68
2022/01/06 09:58:31;;;;;;;5.45;1.95;;;3.50;99.90;;;;;;5001342;28;20026;-68
2022/01/06 10:00:57;;;;;;;4.90;1.80;;;3.50;99.90;;;;;;5005684;28;20541;-69
2022/01/06 10:03:39;;;;;;;8.02;1.80;;;3.50;99.90;;;;;;4997793;28;20029;-69
2022/01/06 10:06:26;;;;;;;5.53;1.35;;;3.50;99.90;;;;;;5007860;28;20057;-70
2022/01/06 10:09:01;;;;;;;5.20;1.55;;;3.50;99.90;;;;;;4994019;28;20061;-70
2022/01/06 10:11:29;;;;;;;6.22;1.60;;;3.50;99.90;;;;;;5006111;28;20106;-69
2022/01/06 10:14:08;;;;;;;3.67;1.50;;;3.50;99.90;;;;;;4989506;28;20069;-69
2022/01/06 10:16:37;;;;;;;3.85;1.38;;;3.60;99.90;;;;;;5009096;28;20498;-69
2022/01/06 10:19:10;;;;;;;5.18;2.40;;;3.70;99.90;;;;;;4992557;28;20030;-68
2022/01/06 10:21:37;;;;;;;4.43;1.77;;;3.80;99.90;;;;;;5005493;28;20031;-69
2022/01/06 10:24:27;;;;;;;6.03;1.60;;;4.00;99.90;;;;;;5011873;28;20028;-68
2022/01/06 10:27:03;;;;;;;5.10;1.67;;;4.10;99.90;;;;;;5008732;28;20042;-72
2022/01/06 10:29:32;;;;;;;5.85;1.67;;;4.20;99.90;;;;;;5005499;28;20037;-69
2022/01/06 10:32:15;;;;;;;5.93;2.35;;;4.20;99.90;;;;;;4988457;28;20034;-70
2022/01/06 10:34:52;;;;;;;5.85;2.08;;;4.20;99.90;;;;;;4988441;28;20030;-70
2022/01/06 10:37:38;;;;;;;3.67;1.83;;;4.20;99.90;;;;;;4984032;28;20073;-69
2022/01/06 10:40:25;;;;;;;5.43;1.55;;;4.10;99.90;;;;;;5004271;28;20040;-69
2022/01/06 10:43:06;;;;;;;3.40;1.67;;;4.10;99.90;;;;;;5004128;28;20430;-71
2022/01/06 10:45:34;;;;;;;4.53;1.70;;;4.10;99.90;;;;;;5003545;28;20108;-70
2022/01/06 10:48:02;;;;;;;7.70;2.40;;;4.10;99.90;;;;;;4987642;28;20036;-70
2022/01/06 10:50:33;;;;;;;6.22;2.08;;;4.20;99.90;;;;;;5008496;28;20566;-69
2022/01/06 10:53:01;;;;;;;5.53;1.63;;;4.20;99.90;;;;;;5005513;28;20045;-69
2022/01/06 10:55:46;;;;;;;5.20;2.00;;;4.30;99.90;;;;;;5002916;28;20109;-69
2022/01/06 10:58:19;;;;;;;3.08;1.50;;;4.40;99.90;;;;;;5009273;28;20045;-70
2022/01/06 11:01:04;;;;;;;6.57;2.83;;;4.40;99.90;;;;;;4992331;28;20029;-69
2022/01/06 11:03:33;;;;;;;10.68;3.17;;;4.40;99.90;;;;;;5008316;28;20042;-69
2022/01/06 11:06:02;;;;;;;7.38;2.38;;;4.40;99.90;;;;;;5008857;28;20054;-70
2022/01/06 11:08:55;;;;;;;5.65;2.47;;;4.50;99.90;;;;;;5008328;28;20113;-69
2022/01/06 11:11:44;;;;;;;4.18;1.92;;;4.50;99.90;;;;;;5015661;28;20099;-69
2022/01/06 11:14:15;;;;;;;4.80;2.05;;;4.50;99.90;;;;;;5017030;28;20022;-69
2022/01/06 11:16:42;;;;;;;6.68;1.80;;;4.50;99.90;;;;;;5008953;28;20112;-69
2022/01/06 11:19:11;;;;;;;6.18;2.00;;;4.40;99.90;;;;;;5010140;28;20168;-70
2022/01/06 11:21:40;;;;;;;4.20;1.77;;;4.40;99.90;;;;;;5009831;28;20064;-69
2022/01/06 11:24:20;;;;;;;5.18;1.80;;;4.30;99.90;;;;;;5011292;28;20363;-70
2022/01/06 11:27:08;;;;;;;8.68;2.10;;;4.40;99.90;;;;;;4995001;28;20021;-69
2022/01/06 11:29:42;;;;;;;5.13;1.80;;;4.40;99.90;;;;;;4993245;28;20026;-69
2022/01/06 11:32:22;;;;;;;7.90;2.90;;;4.50;99.90;;;;;;4996503;28;20032;-70
2022/01/06 11:35:01;;;;;;;5.47;2.13;;;4.60;99.90;;;;;;5007490;28;20645;-69
2022/01/06 11:37:51;;;;;;;20.42;2.65;;;4.80;99.90;;;;;;5013804;28;20034;-70
2022/01/06 11:40:29;;;;;;;2.67;1.70;;;4.80;99.90;;;;;;4991287;28;20026;-69
2022/01/06 11:42:59;;;;;;;6.30;2.25;;;4.80;99.90;;;;;;4997313;28;20406;-70
2022/01/06 11:45:25;;;;;;;6.35;2.58;;;4.80;99.90;;;;;;4994713;28;20520;-69
2022/01/06 11:48:07;;;;;;;9.05;2.58;;;4.80;99.90;;;;;;5008521;28;20556;-69
2022/01/06 11:50:42;;;;;;;4.30;2.10;;;4.90;99.90;;;;;;5007497;28;20036;-68
2022/01/06 11:53:08;;;;;;;8.50;2.17;;;5.10;99.90;;;;;;5009211;28;20025;-69
2022/01/06 11:55:40;;;;;;;4.75;1.98;;;5.30;99.90;;;;;;4993806;28;20034;-69
2022/01/06 11:58:17;;;;;;;8.07;2.47;;;5.50;99.90;;;;;;5008124;28;20414;-68
2022/01/06 12:01:05;;;;;;;5.78;1.80;;;5.60;99.90;;;;;;5009906;28;20426;-68
2022/01/06 12:03:38;;;;;;;7.55;2.38;;;5.70;99.90;;;;;;5009048;28;20091;-68
2022/01/06 12:06:05;;;;;;;5.07;1.93;;;5.80;99.90;;;;;;4993741;28;20088;-69
2022/01/06 12:08:41;;;;;;;11.73;2.10;;;5.70;99.90;;;;;;4991021;28;20034;-69
2022/01/06 12:11:20;;;;;;;6.93;1.77;;;5.70;99.90;;;;;;5009954;28;20501;-69
2022/01/06 12:13:46;;;;;;;5.93;1.85;;;5.60;99.90;;;;;;5009368;28;20017;-69
2022/01/06 12:16:23;;;;;;;6.30;2.08;;;5.60;99.90;;;;;;5014547;28;20111;-70
2022/01/06 12:18:48;;;;;;;3.75;1.52;;;5.50;99.90;;;;;;4989927;28;20125;-70
2022/01/06 12:21:14;;;;;;;4.03;1.90;;;5.40;99.90;;;;;;5006671;28;20125;-70
2022/01/06 12:23:40;;;;;;;4.47;1.75;;;5.30;99.90;;;;;;4992572;28;20466;-69
2022/01/06 12:26:08;;;;;;;6.88;2.08;;;5.20;99.90;;;;;;5004986;28;20026;-69
2022/01/06 12:28:47;;;;;;;10.00;2.40;;;5.10;99.90;;;;;;5008057;28;20028;-70
2022/01/06 12:31:23;;;;;;;8.40;2.33;;;5.00;99.90;;;;;;4997239;28;20022;-69
2022/01/06 12:33:49;;;;;;;8.50;1.83;;;4.90;99.90;;;;;;5006412;28;20050;-70
2022/01/06 12:36:18;;;;;;;4.97;2.40;;;4.80;99.90;;;;;;4989478;28;20062;-69
2022/01/06 12:38:43;;;;;;;6.15;2.25;;;4.50;99.90;;;;;;4992725;28;20042;-69
2022/01/06 12:41:11;;;;;;;10.40;3.13;;;4.30;99.90;;;;;;4989128;28;20398;-70
2022/01/06 12:43:39;;;;;;;12.85;6.05;;;4.20;99.90;;;;;;4990650;28;20025;-68
2022/01/06 12:46:05;;;;;;;14.27;5.28;;;4.00;99.90;;;;;;4989656;28;20084;-69
2022/01/06 12:48:33;;;;;;;10.95;2.95;;;3.90;99.90;;;;;;4992762;28;20022;-70
2022/01/06 12:51:00;;;;;;;14.73;2.70;;;3.80;99.90;;;;;;5013178;28;20026;-69
2022/01/06 12:53:32;;;;;;;6.78;2.33;;;3.80;99.90;;;;;;5006250;28;20057;-70
2022/01/06 12:55:59;;;;;;;14.07;3.28;;;3.70;99.90;;;;;;4993822;28;20079;-70
2022/01/06 12:58:29;;;;;;;12.00;3.15;;;3.60;99.90;;;;;;5001263;28;20030;-70
2022/01/06 13:01:01;;;;;;;12.43;3.40;;;3.50;99.90;;;;;;5011990;28;20055;-70
2022/01/06 13:03:35;;;;;;;10.27;3.10;;;3.40;99.90;;;;;;5005888;28;20741;-70
2022/01/06 13:06:12;;;;;;;6.70;2.50;;;3.40;99.90;;;;;;5003628;28;20022;-70
2022/01/06 13:08:51;;;;;;;8.25;2.85;;;3.20;99.90;;;;;;4991515;28;20034;-69
2022/01/06 13:11:22;;;;;;;5.85;2.50;;;3.10;99.90;;;;;;5007743;28;20022;-69
2022/01/06 13:13:47;;;;;;;8.18;2.17;;;3.00;99.90;;;;;;5006545;28;20040;-69